createdAt,value
2019-02-25T00:01:34.706Z,99.90
2019-02-25T00:04:04.135Z,99.90
2019-02-25T00:06:33.514Z,99.90
2019-02-25T00:09:06.477Z,99.90
2019-02-25T00:11:37.613Z,99.90
2019-02-25T00:14:06.994Z,99.90
2019-02-25T00:16:36.380Z,99.90
2019-02-25T00:19:05.814Z,99.90
2019-02-25T00:21:36.242Z,99.90
2019-02-25T00:24:06.019Z,99.90
2019-02-25T00:26:35.355Z,99.90
2019-02-25T00:29:04.838Z,99.90
2019-02-25T00:31:34.175Z,99.90
2019-02-25T00:34:04.579Z,99.90
2019-02-25T00:36:33.913Z,99.90
2019-02-25T00:39:04.342Z,99.90
2019-02-25T00:41:33.862Z,99.90
2019-02-25T00:44:03.212Z,99.90
2019-02-25T00:46:32.534Z,99.90
2019-02-25T00:49:02.942Z,99.90
2019-02-25T00:51:32.298Z,99.90
2019-02-25T00:54:01.770Z,99.90
2019-02-25T00:56:31.211Z,99.90
2019-02-25T00:59:00.575Z,99.90
2019-02-25T01:01:29.932Z,99.90
2019-02-25T01:03:59.735Z,99.90
2019-02-25T01:06:29.240Z,99.90
2019-02-25T01:08:58.595Z,99.90
2019-02-25T01:11:27.969Z,99.90
2019-02-25T01:13:57.314Z,99.90
2019-02-25T01:16:26.713Z,99.90
2019-02-25T01:18:56.113Z,99.90
2019-02-25T01:21:25.519Z,99.90
2019-02-25T01:23:55.847Z,99.90
2019-02-25T01:26:25.242Z,99.90
2019-02-25T01:28:54.683Z,99.90
2019-02-25T01:31:24.039Z,99.90
2019-02-25T01:33:53.416Z,99.90
2019-02-25T01:36:22.769Z,99.90
2019-02-25T01:38:52.189Z,99.90
2019-02-25T01:41:21.610Z,99.90
2019-02-25T01:43:50.958Z,99.90
2019-02-25T01:46:20.425Z,99.90
2019-02-25T01:48:50.817Z,99.90
2019-02-25T01:51:22.111Z,99.90
2019-02-25T01:53:51.305Z,99.90
2019-02-25T01:56:20.723Z,99.90
2019-02-25T01:58:55.780Z,99.90
2019-02-25T02:01:25.161Z,99.90
2019-02-25T02:03:54.541Z,99.90
2019-02-25T02:06:23.935Z,99.90
2019-02-25T02:08:53.303Z,99.90
2019-02-25T02:11:22.694Z,99.90
2019-02-25T02:13:52.033Z,99.90
2019-02-25T02:16:21.405Z,99.90
2019-02-25T02:18:50.723Z,99.90
2019-02-25T02:21:20.133Z,99.90
2019-02-25T02:23:49.559Z,99.90
2019-02-25T02:26:21.063Z,99.90
2019-02-25T02:28:50.080Z,99.90
2019-02-25T02:31:23.324Z,99.90
2019-02-25T02:33:52.650Z,99.90
2019-02-25T02:36:22.057Z,99.90
2019-02-25T02:38:51.475Z,99.90
2019-02-25T02:41:20.848Z,99.90
2019-02-25T02:43:50.206Z,99.90
2019-02-25T02:46:31.732Z,99.90
2019-02-25T02:49:03.022Z,99.90
2019-02-25T02:51:32.454Z,99.90
2019-02-25T02:54:02.821Z,99.90
2019-02-25T02:56:32.243Z,99.90
2019-02-25T02:59:01.618Z,99.90
2019-02-25T03:01:30.989Z,99.90
2019-02-25T03:04:00.346Z,99.90
2019-02-25T03:06:29.701Z,99.90
2019-02-25T03:08:59.162Z,99.90
2019-02-25T03:11:28.530Z,99.90
2019-02-25T03:13:57.962Z,99.90
2019-02-25T03:16:28.433Z,99.90
2019-02-25T03:18:57.801Z,99.90
2019-02-25T03:21:27.162Z,99.90
2019-02-25T03:23:56.567Z,99.90
2019-02-25T03:26:25.957Z,99.90
2019-02-25T03:28:55.363Z,99.90
2019-02-25T03:31:24.734Z,99.90
2019-02-25T03:33:57.350Z,99.90
2019-02-25T03:36:26.708Z,99.90
2019-02-25T03:38:57.023Z,99.90
2019-02-25T03:41:26.374Z,99.90
2019-02-25T03:43:55.748Z,99.90
2019-02-25T03:46:25.181Z,99.90
2019-02-25T03:48:54.558Z,99.90
2019-02-25T03:51:27.692Z,99.90
2019-02-25T03:53:57.138Z,99.90
2019-02-25T03:56:26.684Z,99.90
2019-02-25T03:58:56.040Z,99.90
2019-02-25T04:01:25.435Z,99.90
2019-02-25T04:03:54.893Z,99.90
2019-02-25T04:06:24.307Z,99.90
2019-02-25T04:08:53.641Z,99.90
2019-02-25T04:11:23.059Z,99.90
2019-02-25T04:13:52.547Z,99.90
2019-02-25T04:16:22.004Z,99.90
2019-02-25T04:18:51.361Z,99.90
2019-02-25T04:21:20.732Z,99.90
2019-02-25T04:23:50.102Z,99.90
2019-02-25T04:26:19.437Z,99.90
2019-02-25T04:28:48.818Z,99.90
2019-02-25T04:31:18.172Z,99.90
2019-02-25T04:33:47.593Z,99.90
2019-02-25T04:36:17.056Z,99.90
2019-02-25T04:38:46.442Z,99.90
2019-02-25T04:41:15.807Z,99.90
2019-02-25T04:43:45.199Z,99.90
2019-02-25T04:46:14.583Z,99.90
2019-02-25T04:48:45.542Z,99.90
2019-02-25T04:51:14.901Z,99.90
2019-02-25T04:53:44.296Z,99.90
2019-02-25T04:56:13.645Z,99.90
2019-02-25T04:58:43.939Z,99.90
2019-02-25T05:01:13.357Z,99.90
2019-02-25T05:03:42.795Z,99.90
2019-02-25T05:06:12.198Z,99.90
2019-02-25T05:08:41.566Z,99.90
2019-02-25T05:11:11.049Z,99.90
2019-02-25T05:13:40.421Z,99.90
2019-02-25T05:16:09.826Z,99.90
2019-02-25T05:18:39.221Z,99.90
2019-02-25T05:21:13.494Z,99.90
2019-02-25T05:23:42.933Z,99.90
2019-02-25T05:26:12.299Z,99.90
2019-02-25T05:28:41.664Z,99.90
2019-02-25T05:31:11.048Z,99.90
2019-02-25T05:33:40.431Z,99.90
2019-02-25T05:36:09.938Z,99.90
2019-02-25T05:38:39.327Z,99.90
2019-02-25T05:41:08.858Z,99.90
2019-02-25T05:43:38.234Z,99.90
2019-02-25T05:46:11.185Z,99.90
2019-02-25T05:48:40.539Z,99.90
2019-02-25T05:51:10.955Z,99.90
2019-02-25T05:53:40.319Z,99.90
2019-02-25T05:56:13.448Z,99.90
2019-02-25T05:58:42.810Z,99.90
2019-02-25T06:01:12.195Z,99.90
2019-02-25T06:03:47.415Z,99.90
2019-02-25T06:06:16.790Z,99.90
2019-02-25T06:08:46.153Z,99.90
2019-02-25T06:11:16.525Z,99.90
2019-02-25T06:13:45.914Z,99.90
2019-02-25T06:16:15.329Z,99.90
2019-02-25T06:18:44.697Z,99.90
2019-02-25T06:21:14.119Z,99.90
2019-02-25T06:23:44.628Z,99.90
2019-02-25T06:26:14.093Z,99.90
2019-02-25T06:28:43.515Z,99.90
2019-02-25T06:31:13.870Z,99.90
2019-02-25T06:33:43.276Z,99.90
2019-02-25T06:36:12.683Z,99.90
2019-02-25T06:38:43.087Z,99.90
2019-02-25T06:41:12.484Z,99.90
2019-02-25T06:43:41.901Z,99.90
2019-02-25T06:46:11.287Z,99.90
2019-02-25T06:48:40.691Z,99.90
2019-02-25T06:51:10.163Z,99.90
2019-02-25T06:53:39.582Z,99.90
2019-02-25T06:56:09.022Z,99.90
2019-02-25T06:58:38.458Z,99.90
2019-02-25T07:01:12.462Z,99.90
2019-02-25T07:03:43.597Z,99.90
2019-02-25T07:06:17.576Z,99.90
2019-02-25T07:08:48.584Z,99.90
2019-02-25T07:11:35.181Z,99.90
2019-02-25T07:14:09.040Z,99.90
2019-02-25T07:16:46.650Z,99.90
2019-02-25T07:19:17.654Z,99.90
2019-02-25T07:21:48.721Z,99.90
2019-02-25T07:24:22.294Z,99.90
2019-02-25T07:26:53.308Z,99.90
2019-02-25T07:29:42.257Z,99.90
2019-02-25T07:32:13.259Z,99.90
2019-02-25T07:34:49.332Z,98.20
2019-02-25T07:37:36.540Z,92.70
2019-02-25T07:40:09.924Z,84.10
2019-02-25T07:42:49.902Z,81.50
2019-02-25T07:45:30.334Z,78.60
2019-02-25T07:48:01.402Z,73.30
2019-02-25T07:51:01.321Z,61.60
2019-02-25T07:53:32.411Z,57.80
2019-02-25T07:56:06.420Z,62.40
2019-02-25T07:58:37.535Z,65.20
2019-02-25T08:01:25.405Z,61.60
2019-02-25T08:03:59.320Z,59.00
2019-02-25T08:06:39.489Z,58.00
2019-02-25T08:09:16.811Z,54.00
2019-02-25T08:11:50.797Z,55.20
2019-02-25T08:14:33.984Z,50.10
2019-02-25T08:17:07.673Z,48.60
2019-02-25T08:19:41.374Z,46.70
2019-02-25T08:22:15.080Z,44.50
2019-02-25T08:24:46.083Z,43.20
2019-02-25T08:27:17.145Z,42.80
2019-02-25T08:29:54.275Z,40.90
2019-02-25T08:32:41.710Z,40.60
2019-02-25T08:35:20.401Z,40.60
2019-02-25T08:37:58.546Z,41.60
2019-02-25T08:40:38.602Z,41.30
2019-02-25T08:43:32.970Z,40.80
2019-02-25T08:46:22.310Z,39.90
2019-02-25T08:49:08.521Z,40.40
2019-02-25T08:51:38.005Z,39.70
2019-02-25T08:54:07.420Z,38.80
2019-02-25T08:56:36.821Z,38.70
2019-02-25T08:59:06.290Z,39.20
2019-02-25T09:01:35.702Z,39.00
2019-02-25T09:04:06.071Z,39.70
2019-02-25T09:06:35.418Z,42.10
2019-02-25T09:09:06.415Z,41.30
2019-02-25T09:11:36.063Z,43.50
2019-02-25T09:14:05.539Z,45.80
2019-02-25T09:16:35.924Z,53.20
2019-02-25T09:19:05.274Z,62.80
2019-02-25T09:21:34.660Z,74.30
2019-02-25T09:24:04.010Z,85.00
2019-02-25T09:26:33.432Z,91.70
2019-02-25T09:29:03.926Z,94.20
2019-02-25T09:31:34.323Z,92.20
2019-02-25T09:34:03.698Z,91.80
2019-02-25T09:36:33.041Z,92.80
2019-02-25T09:39:04.526Z,93.60
2019-02-25T09:41:34.339Z,92.50
2019-02-25T09:44:03.710Z,91.70
2019-02-25T09:46:35.087Z,93.60
2019-02-25T09:49:04.430Z,95.20
2019-02-25T09:51:34.797Z,93.80
2019-02-25T09:54:04.158Z,92.80
2019-02-25T09:56:33.635Z,94.40
2019-02-25T09:59:02.984Z,95.00
2019-02-25T10:01:35.787Z,95.10
2019-02-25T10:04:05.201Z,93.30
2019-02-25T10:06:34.650Z,94.00
2019-02-25T10:09:05.914Z,94.00
2019-02-25T10:11:35.347Z,94.40
2019-02-25T10:14:04.714Z,96.10
2019-02-25T10:16:34.079Z,96.30
2019-02-25T10:19:03.510Z,95.60
2019-02-25T10:21:33.933Z,94.80
2019-02-25T10:24:03.499Z,94.20
2019-02-25T10:26:33.766Z,95.00
2019-02-25T10:29:03.170Z,95.50
2019-02-25T10:31:32.556Z,94.60
2019-02-25T10:34:01.940Z,94.50
2019-02-25T10:36:31.369Z,94.40
2019-02-25T10:39:00.759Z,93.90
2019-02-25T10:41:31.366Z,93.10
2019-02-25T10:44:02.293Z,92.10
2019-02-25T10:46:32.752Z,90.70
2019-02-25T10:49:11.185Z,90.80
2019-02-25T10:51:34.720Z,91.60
2019-02-25T10:54:04.313Z,92.60
2019-02-25T10:56:36.763Z,91.00
2019-02-25T10:59:07.856Z,90.90
2019-02-25T11:01:39.164Z,91.30
2019-02-25T11:04:08.374Z,91.50
2019-02-25T11:06:37.799Z,89.90
2019-02-25T11:09:27.481Z,91.00
2019-02-25T11:11:58.057Z,90.90
2019-02-25T11:14:28.620Z,89.00
2019-02-25T11:16:58.079Z,87.10
2019-02-25T11:19:28.551Z,89.50
2019-02-25T11:21:58.494Z,87.30
2019-02-25T11:24:27.832Z,86.50
2019-02-25T11:26:58.906Z,86.80
2019-02-25T11:29:28.280Z,89.90
2019-02-25T11:31:57.640Z,87.60
2019-02-25T11:34:27.102Z,86.30
2019-02-25T11:36:57.209Z,86.20
2019-02-25T11:39:29.991Z,85.90
2019-02-25T11:41:58.584Z,83.20
2019-02-25T11:44:31.143Z,81.90
2019-02-25T11:46:59.101Z,78.60
2019-02-25T11:49:28.486Z,78.80
2019-02-25T11:51:59.903Z,72.60
2019-02-25T11:54:29.264Z,70.30
2019-02-25T11:56:58.788Z,70.20
2019-02-25T11:59:30.680Z,67.40
2019-02-25T12:02:01.305Z,67.50
2019-02-25T12:04:31.700Z,69.80
2019-02-25T12:07:01.086Z,67.50
2019-02-25T12:09:30.512Z,65.70
2019-02-25T12:12:01.944Z,66.80
2019-02-25T12:14:32.291Z,64.80
2019-02-25T12:17:01.685Z,65.90
2019-02-25T12:19:31.062Z,60.00
2019-02-25T12:22:00.393Z,58.00
2019-02-25T12:24:29.749Z,60.20
2019-02-25T12:26:59.109Z,59.30
2019-02-25T12:29:31.955Z,60.00
2019-02-25T12:32:01.384Z,62.30
2019-02-25T12:34:30.766Z,63.50
2019-02-25T12:37:00.097Z,58.70
2019-02-25T12:39:29.514Z,58.40
2019-02-25T12:42:00.061Z,53.70
2019-02-25T12:44:29.485Z,56.00
2019-02-25T12:46:58.859Z,58.60
2019-02-25T12:49:28.282Z,60.60
2019-02-25T12:51:57.663Z,62.10
2019-02-25T12:54:27.031Z,62.80
2019-02-25T12:56:56.454Z,64.00
2019-02-25T12:59:25.796Z,64.10
2019-02-25T13:01:55.159Z,66.00
2019-02-25T13:04:24.517Z,66.10
2019-02-25T13:06:53.874Z,68.40
2019-02-25T13:09:23.276Z,66.90
2019-02-25T13:11:52.635Z,66.50
2019-02-25T13:14:22.042Z,65.80
2019-02-25T13:16:51.467Z,61.20
2019-02-25T13:19:20.882Z,61.00
2019-02-25T13:21:50.334Z,56.20
2019-02-25T13:24:19.680Z,54.50
2019-02-25T13:26:49.014Z,55.70
2019-02-25T13:29:18.480Z,52.40
2019-02-25T13:31:47.933Z,51.00
2019-02-25T13:34:17.367Z,53.70
2019-02-25T13:36:46.737Z,53.70
2019-02-25T13:39:16.220Z,55.20
2019-02-25T13:41:46.123Z,56.20
2019-02-25T13:44:15.658Z,58.10
2019-02-25T13:46:46.142Z,60.80
2019-02-25T13:49:15.725Z,64.60
2019-02-25T13:51:45.107Z,64.60
2019-02-25T13:54:14.581Z,66.20
2019-02-25T13:56:43.985Z,64.70
2019-02-25T13:59:13.527Z,67.00
2019-02-25T14:01:42.951Z,66.30
2019-02-25T14:04:12.496Z,63.10
2019-02-25T14:06:41.944Z,63.10
2019-02-25T14:09:11.829Z,64.50
2019-02-25T14:11:42.882Z,62.50
2019-02-25T14:14:12.518Z,62.30
2019-02-25T14:16:41.967Z,63.00
2019-02-25T14:19:12.600Z,64.10
2019-02-25T14:21:42.021Z,62.90
2019-02-25T14:24:12.462Z,61.20
2019-02-25T14:26:41.899Z,62.90
2019-02-25T14:29:11.375Z,60.00
2019-02-25T14:31:40.816Z,61.50
2019-02-25T14:34:10.258Z,60.70
2019-02-25T14:36:39.707Z,61.40
2019-02-25T14:39:24.994Z,60.80
2019-02-25T14:41:54.429Z,60.40
2019-02-25T14:44:27.190Z,59.20
2019-02-25T14:46:53.931Z,60.90
2019-02-25T14:49:23.349Z,60.00
2019-02-25T14:51:52.874Z,55.20
2019-02-25T14:54:24.499Z,48.80
2019-02-25T14:56:54.836Z,50.40
2019-02-25T14:59:25.415Z,51.50
2019-02-25T15:01:56.870Z,52.60
2019-02-25T15:04:25.990Z,53.60
2019-02-25T15:06:55.418Z,54.30
2019-02-25T15:09:24.775Z,55.60
2019-02-25T15:11:55.910Z,57.40
2019-02-25T15:14:25.503Z,55.70
2019-02-25T15:16:56.475Z,54.80
2019-02-25T15:19:27.918Z,57.20
2019-02-25T15:21:58.510Z,56.60
2019-02-25T15:24:29.401Z,55.50
2019-02-25T15:26:59.821Z,56.80
2019-02-25T15:29:29.858Z,55.50
2019-02-25T15:32:01.799Z,54.40
2019-02-25T15:34:30.721Z,55.00
2019-02-25T15:37:00.704Z,54.70
2019-02-25T15:39:31.464Z,54.60
2019-02-25T15:42:00.844Z,54.70
2019-02-25T15:44:30.303Z,55.50
2019-02-25T15:47:02.370Z,56.90
2019-02-25T15:49:32.174Z,58.40
2019-02-25T15:52:01.548Z,60.40
2019-02-25T15:54:32.817Z,62.30
2019-02-25T15:57:02.051Z,63.30
2019-02-25T15:59:32.491Z,65.20
2019-02-25T16:02:03.507Z,66.80
2019-02-25T16:04:42.494Z,66.90
2019-02-25T16:07:12.009Z,69.80
2019-02-25T16:09:41.530Z,71.00
2019-02-25T16:12:10.997Z,71.80
2019-02-25T16:14:41.878Z,72.80
2019-02-25T16:17:11.686Z,72.60
2019-02-25T16:19:47.358Z,72.40
2019-02-25T16:22:12.196Z,73.00
2019-02-25T16:24:43.588Z,72.80
2019-02-25T16:27:12.772Z,74.00
2019-02-25T16:29:43.124Z,74.40
2019-02-25T16:32:12.666Z,73.00
2019-02-25T16:34:42.695Z,74.50
2019-02-25T16:37:12.351Z,75.30
2019-02-25T16:39:41.872Z,76.50
2019-02-25T16:42:11.289Z,76.90
2019-02-25T16:44:40.753Z,75.80
2019-02-25T16:47:13.881Z,76.70
2019-02-25T16:49:44.215Z,77.90
2019-02-25T16:52:14.311Z,78.30
2019-02-25T16:54:44.782Z,78.30
2019-02-25T16:57:16.878Z,79.50
2019-02-25T16:59:48.409Z,80.60
2019-02-25T17:02:17.892Z,79.30
2019-02-25T17:04:47.347Z,80.60
2019-02-25T17:07:22.625Z,82.60
2019-02-25T17:09:56.878Z,84.00
2019-02-25T17:12:27.902Z,87.10
2019-02-25T17:14:58.443Z,87.60
2019-02-25T17:17:27.851Z,88.10
2019-02-25T17:20:01.052Z,87.70
2019-02-25T17:22:31.048Z,89.60
2019-02-25T17:25:02.863Z,90.20
2019-02-25T17:27:38.486Z,91.10
2019-02-25T17:30:28.566Z,92.50
2019-02-25T17:32:58.136Z,93.40
2019-02-25T17:35:30.238Z,94.40
2019-02-25T17:38:00.402Z,95.00
2019-02-25T17:40:29.902Z,96.20
2019-02-25T17:43:06.895Z,97.10
2019-02-25T17:45:37.309Z,98.10
2019-02-25T17:48:08.487Z,98.30
2019-02-25T17:50:41.051Z,97.80
2019-02-25T17:53:10.063Z,96.90
2019-02-25T17:55:39.763Z,96.70
2019-02-25T17:58:09.753Z,97.50
2019-02-25T18:00:43.610Z,97.70
2019-02-25T18:03:13.096Z,98.00
2019-02-25T18:05:44.225Z,98.50
2019-02-25T18:08:16.983Z,99.10
2019-02-25T18:10:47.506Z,99.40
2019-02-25T18:13:32.900Z,99.80
2019-02-25T18:16:02.504Z,99.90
2019-02-25T18:18:31.921Z,99.90
2019-02-25T18:21:01.370Z,99.90
2019-02-25T18:23:30.874Z,99.90
2019-02-25T18:26:00.506Z,99.90
2019-02-25T18:28:37.483Z,99.90
2019-02-25T18:31:09.104Z,99.90
2019-02-25T18:33:37.991Z,99.90
2019-02-25T18:36:08.858Z,99.90
2019-02-25T18:38:38.576Z,99.90
2019-02-25T18:41:09.234Z,99.90
2019-02-25T18:43:42.991Z,99.90
2019-02-25T18:46:12.950Z,99.90
2019-02-25T18:48:44.567Z,99.90
2019-02-25T18:51:14.564Z,99.90
2019-02-25T18:53:44.757Z,99.90
2019-02-25T18:56:16.281Z,99.90
2019-02-25T18:58:50.401Z,99.90
2019-02-25T19:01:19.995Z,99.90
2019-02-25T19:03:50.581Z,99.90
2019-02-25T19:06:23.560Z,99.90
2019-02-25T19:08:53.838Z,99.90
2019-02-25T19:11:27.753Z,99.90
2019-02-25T19:14:01.036Z,99.90
2019-02-25T19:16:27.753Z,99.90
2019-02-25T19:18:57.183Z,99.90
2019-02-25T19:21:27.681Z,99.90
2019-02-25T19:23:57.766Z,99.90
2019-02-25T19:26:27.274Z,99.90
2019-02-25T19:29:00.605Z,99.90
2019-02-25T19:31:36.924Z,99.90
2019-02-25T19:34:06.716Z,99.90
2019-02-25T19:36:42.171Z,99.90
2019-02-25T19:39:14.200Z,99.90
2019-02-25T19:41:46.990Z,99.90
2019-02-25T19:44:14.892Z,99.90
2019-02-25T19:46:46.134Z,99.90
2019-02-25T19:49:18.357Z,99.90
2019-02-25T19:51:48.405Z,99.90
2019-02-25T19:54:18.767Z,99.90
2019-02-25T19:56:51.510Z,99.90
2019-02-25T19:59:23.535Z,99.90
2019-02-25T20:01:52.550Z,99.90
2019-02-25T20:04:21.964Z,99.90
2019-02-25T20:07:13.298Z,99.90
2019-02-25T20:09:42.805Z,99.90
2019-02-25T20:12:12.302Z,99.90
2019-02-25T20:14:42.564Z,99.90
2019-02-25T20:17:14.227Z,99.90
2019-02-25T20:19:45.620Z,99.90
2019-02-25T20:22:22.183Z,99.90
2019-02-25T20:24:53.305Z,99.90
2019-02-25T20:27:22.908Z,99.90
2019-02-25T20:29:52.656Z,99.90
2019-02-25T20:32:24.707Z,99.90
2019-02-25T20:35:05.334Z,99.90
2019-02-25T20:37:34.752Z,99.90
2019-02-25T20:40:07.368Z,99.90
2019-02-25T20:42:36.848Z,99.90
2019-02-25T20:45:09.427Z,99.90
2019-02-25T20:47:38.872Z,99.90
2019-02-25T20:50:11.866Z,99.90
2019-02-25T20:52:42.532Z,99.90
2019-02-25T20:55:17.854Z,99.90
2019-02-25T20:57:47.294Z,99.90
2019-02-25T21:00:22.822Z,99.90
2019-02-25T21:02:52.163Z,99.90
2019-02-25T21:05:22.768Z,99.90
2019-02-25T21:07:55.502Z,99.90
2019-02-25T21:10:27.310Z,99.90
2019-02-25T21:12:57.190Z,99.90
2019-02-25T21:15:27.254Z,99.90
2019-02-25T21:17:59.313Z,99.90
2019-02-25T21:20:28.863Z,99.90
2019-02-25T21:23:04.848Z,99.90
2019-02-25T21:25:32.195Z,99.90
2019-02-25T21:28:08.950Z,99.90
2019-02-25T21:30:41.194Z,99.90
2019-02-25T21:33:13.365Z,99.90
2019-02-25T21:35:41.891Z,99.90
2019-02-25T21:38:12.356Z,99.90
2019-02-25T21:40:41.767Z,99.90
2019-02-25T21:43:14.411Z,99.90
2019-02-25T21:45:46.066Z,99.90
2019-02-25T21:48:13.215Z,99.90
2019-02-25T21:50:44.022Z,99.90
2019-02-25T21:53:14.342Z,99.90
2019-02-25T21:55:44.475Z,99.90
2019-02-25T21:58:21.269Z,99.90
2019-02-25T22:00:51.038Z,99.90
2019-02-25T22:03:21.858Z,99.90
2019-02-25T22:05:53.265Z,99.90
2019-02-25T22:08:24.361Z,99.90
2019-02-25T22:10:54.542Z,99.90
2019-02-25T22:13:24.005Z,99.90
2019-02-25T22:15:53.412Z,99.90
2019-02-25T22:18:22.763Z,99.90
2019-02-25T22:20:52.216Z,99.90
2019-02-25T22:23:22.237Z,99.90
2019-02-25T22:25:53.742Z,99.90
2019-02-25T22:28:24.179Z,99.90
2019-02-25T22:30:54.078Z,99.90
2019-02-25T22:33:27.716Z,99.90
2019-02-25T22:35:54.679Z,99.90
2019-02-25T22:38:24.015Z,99.90
2019-02-25T22:40:55.405Z,99.90
2019-02-25T22:43:24.422Z,99.90
2019-02-25T22:45:56.140Z,99.90
2019-02-25T22:48:25.250Z,99.90
2019-02-25T22:50:57.829Z,99.90
2019-02-25T22:53:27.695Z,99.90
2019-02-25T22:56:00.816Z,99.90
2019-02-25T22:58:32.132Z,99.90
2019-02-25T23:01:04.741Z,99.90
2019-02-25T23:03:34.406Z,99.90
2019-02-25T23:06:03.779Z,99.90
2019-02-25T23:08:33.269Z,99.90
2019-02-25T23:11:02.660Z,99.90
2019-02-25T23:13:32.081Z,99.90
2019-02-25T23:16:01.501Z,99.90
2019-02-25T23:18:31.789Z,99.90
2019-02-25T23:21:03.145Z,99.90
2019-02-25T23:23:35.601Z,99.90
2019-02-25T23:26:04.851Z,99.90
2019-02-25T23:28:34.354Z,99.90
2019-02-25T23:31:03.941Z,99.90
2019-02-25T23:33:38.172Z,99.90
2019-02-25T23:36:05.487Z,99.90
2019-02-25T23:38:34.875Z,99.90
2019-02-25T23:41:07.584Z,99.90
2019-02-25T23:43:38.073Z,99.90
2019-02-25T23:46:08.821Z,99.90
2019-02-25T23:48:39.170Z,99.90
2019-02-25T23:51:09.501Z,99.90
2019-02-25T23:53:38.922Z,99.90
2019-02-25T23:56:08.284Z,99.90
2019-02-25T23:58:40.333Z,99.90
